Time;durP1;ratioP1;P1;durP2;ratioP2;P2;SDS_P1;SDS_P2;PMS_P1;PMS_P2;Temp;Humidity;BMP_temperature;BMP_pressure;BME280_temperature;BME280_humidity;BME280_pressure;Samples;Min_cycle;Max_cycle;Signal;HPM_P1;HPM_P2
2022/01/04 14:07:33;;;;;;;8.27;3.88;;;4.60;86.60;;;;;;5094899;27;20318;-49
2022/01/04 14:09:58;;;;;;;6.32;2.45;;;4.80;86.00;;;;;;5069296;28;73216;-53
2022/01/04 14:13:27;;;;;;;8.45;3.70;;;4.70;83.80;;;;;;5058262;28;20947;-49
2022/01/04 14:15:57;;;;;;;8.30;2.40;;;4.70;86.70;;;;;;5048448;28;20467;-52
2022/01/04 14:18:24;;;;;;;8.23;3.05;;;4.70;86.10;;;;;;5028916;28;20038;-53
2022/01/04 14:20:50;;;;;;;6.35;1.88;;;4.70;85.10;;;;;;5030018;28;20041;-51
2022/01/04 14:23:17;;;;;;;6.40;2.33;;;4.70;85.90;;;;;;5008511;28;74718;-52
2022/01/04 14:25:44;;;;;;;7.22;1.83;;;4.70;85.80;;;;;;5003430;28;20048;-53
2022/01/04 14:28:11;;;;;;;5.95;1.88;;;4.80;86.50;;;;;;5007130;28;20496;-50
2022/01/04 14:30:37;;;;;;;5.38;1.73;;;4.80;83.90;;;;;;5005460;28;20181;-49
2022/01/04 14:33:07;;;;;;;5.22;1.65;;;4.80;85.10;;;;;;4990989;28;20573;-50
2022/01/04 14:35:35;;;;;;;5.72;1.90;;;4.70;82.10;;;;;;5006482;28;20125;-50
2022/01/04 14:38:02;;;;;;;5.03;1.80;;;4.80;84.20;;;;;;5009834;28;20046;-50
2022/01/04 14:40:29;;;;;;;4.22;1.50;;;4.70;80.90;;;;;;5004608;28;20383;-53
2022/01/04 14:42:56;;;;;;;4.28;1.10;;;4.70;82.00;;;;;;5003383;28;20077;-52
2022/01/04 14:45:23;;;;;;;4.80;1.58;;;4.60;79.90;;;;;;5009990;28;20050;-52
2022/01/04 14:47:49;;;;;;;5.65;1.63;;;4.60;81.30;;;;;;5009763;28;20630;-48
2022/01/04 14:50:17;;;;;;;5.30;1.58;;;4.60;79.00;;;;;;5000685;28;20493;-47
2022/01/04 14:52:44;;;;;;;6.70;2.53;;;4.60;81.40;;;;;;5005716;28;20053;-48
2022/01/04 14:55:10;;;;;;;12.50;4.55;;;4.70;82.80;;;;;;4990890;28;20438;-48
2022/01/04 14:57:37;;;;;;;6.60;2.20;;;4.50;81.20;;;;;;4990699;28;20038;-52
2022/01/04 15:00:04;;;;;;;9.13;2.90;;;4.50;81.30;;;;;;5005669;28;20411;-51
2022/01/04 15:02:31;;;;;;;6.68;1.85;;;4.40;81.20;;;;;;5005468;28;20042;-48
2022/01/04 15:04:58;;;;;;;5.63;1.85;;;4.40;81.90;;;;;;5009231;28;20052;-48
2022/01/04 15:07:25;;;;;;;7.43;1.85;;;4.40;83.20;;;;;;5009264;28;20068;-49
2022/01/04 15:09:51;;;;;;;6.70;2.10;;;4.40;82.00;;;;;;5009294;28;20052;-53
2022/01/04 15:12:18;;;;;;;6.78;1.90;;;4.40;81.90;;;;;;5007708;28;20050;-53
2022/01/04 15:14:45;;;;;;;11.13;2.15;;;4.40;82.70;;;;;;5008030;28;20137;-51
2022/01/04 15:17:12;;;;;;;8.18;2.20;;;4.40;82.80;;;;;;5009008;28;20113;-55
2022/01/04 15:19:39;;;;;;;5.25;1.90;;;4.40;81.20;;;;;;5024087;28;20085;-48
2022/01/04 15:22:06;;;;;;;7.82;2.08;;;4.40;82.10;;;;;;5009023;28;20064;-48
2022/01/04 15:24:32;;;;;;;8.43;2.58;;;4.40;82.00;;;;;;5012676;28;20062;-50
2022/01/04 15:26:59;;;;;;;7.88;2.35;;;4.40;81.20;;;;;;4995983;28;20046;-48
2022/01/04 15:29:26;;;;;;;7.40;2.63;;;4.40;81.60;;;;;;4994776;28;20048;-51
2022/01/04 15:31:53;;;;;;;9.38;2.72;;;4.30;80.00;;;;;;4983700;28;20035;-48
2022/01/04 15:34:20;;;;;;;8.07;1.92;;;4.30;80.10;;;;;;4974191;28;20046;-50
2022/01/04 15:36:47;;;;;;;7.10;1.77;;;4.40;79.70;;;;;;4975024;28;20039;-51
2022/01/04 15:41:46;;;;;;;10.57;2.00;;;4.40;78.80;;;;;;4990433;28;20050;-50
2022/01/04 15:44:13;;;;;;;5.95;1.90;;;4.30;78.10;;;;;;4994819;28;20069;-49
2022/01/04 15:46:40;;;;;;;7.03;2.25;;;4.30;79.20;;;;;;4995330;28;20085;-50
2022/01/04 15:49:07;;;;;;;7.90;1.95;;;4.40;80.20;;;;;;4995517;28;20069;-50
2022/01/04 15:51:34;;;;;;;5.68;1.83;;;4.30;77.90;;;;;;4995483;28;20478;-49
2022/01/04 15:54:02;;;;;;;6.28;2.13;;;4.40;79.00;;;;;;4995481;28;20043;-46
2022/01/04 15:56:31;;;;;;;5.97;2.20;;;4.40;79.00;;;;;;4995204;28;20117;-54
2022/01/04 15:58:58;;;;;;;8.60;3.75;;;4.40;80.00;;;;;;4981022;28;20039;-51
2022/01/04 16:01:25;;;;;;;10.98;2.78;;;4.40;79.30;;;;;;4976704;28;20082;-49
2022/01/04 16:03:52;;;;;;;7.53;2.40;;;4.30;78.80;;;;;;4976339;28;20550;-54
2022/01/04 16:06:19;;;;;;;19.60;9.57;;;4.30;80.30;;;;;;4976354;28;20067;-54
2022/01/04 16:08:45;;;;;;;15.77;3.53;;;4.30;81.40;;;;;;4976936;28;20047;-48
2022/01/04 16:11:12;;;;;;;10.50;3.65;;;4.20;79.80;;;;;;4976509;28;20087;-49
2022/01/04 16:13:39;;;;;;;7.53;2.90;;;4.20;78.70;;;;;;4991153;28;20077;-49
2022/01/04 16:17:00;;;;;;;8.23;2.28;;;4.20;78.80;;;;;;4976367;28;20395;-52
2022/01/04 16:21:41;;;;;;;10.80;2.20;;;4.10;79.00;;;;;;4976172;28;20098;-55
2022/01/04 16:24:08;;;;;;;11.30;2.22;;;4.00;78.10;;;;;;4969827;28;20142;-51
2022/01/04 16:26:38;;;;;;;8.88;2.15;;;3.90;78.80;;;;;;4969471;28;20047;-52
2022/01/04 16:29:05;;;;;;;8.82;2.15;;;3.90;79.40;;;;;;4994778;28;20520;-49
2022/01/04 16:31:32;;;;;;;9.35;2.75;;;3.90;80.20;;;;;;4994738;28;20465;-52
2022/01/04 16:33:59;;;;;;;6.65;2.40;;;3.90;79.00;;;;;;4983703;28;20121;-53
2022/01/04 16:36:26;;;;;;;7.28;2.60;;;3.80;79.50;;;;;;4989654;28;20213;-49
2022/01/04 16:38:53;;;;;;;6.35;2.45;;;3.90;79.00;;;;;;4984412;28;20368;-48
2022/01/04 16:41:20;;;;;;;8.38;2.13;;;3.80;80.80;;;;;;4975803;28;20046;-52
2022/01/04 16:43:47;;;;;;;7.80;2.13;;;3.80;78.30;;;;;;4994537;28;20518;-49
2022/01/04 16:46:14;;;;;;;12.18;2.72;;;3.80;79.20;;;;;;4975618;28;20047;-53
2022/01/04 16:48:41;;;;;;;9.07;2.90;;;3.70;79.30;;;;;;4994384;28;20569;-53
2022/01/04 16:51:07;;;;;;;6.50;2.30;;;3.70;79.60;;;;;;4994383;28;20126;-50
2022/01/04 16:53:34;;;;;;;9.40;2.45;;;3.70;80.00;;;;;;4988357;28;20487;-48
2022/01/04 16:56:07;;;;;;;9.20;2.33;;;3.70;80.20;;;;;;4975582;28;20386;-54
2022/01/04 16:58:54;;;;;;;13.68;3.40;;;3.70;81.50;;;;;;4975754;28;20501;-48
2022/01/04 17:01:21;;;;;;;11.65;3.53;;;3.70;81.00;;;;;;4975601;28;20050;-49
2022/01/04 17:03:48;;;;;;;9.13;3.38;;;3.70;81.60;;;;;;4975399;28;20050;-57
2022/01/04 17:06:15;;;;;;;8.50;2.50;;;3.70;81.40;;;;;;4975339;28;20054;-53
2022/01/04 17:08:45;;;;;;;6.00;2.10;;;3.60;79.60;;;;;;4975356;28;20046;-52
2022/01/04 17:11:13;;;;;;;6.90;2.72;;;3.60;79.80;;;;;;4975289;28;20502;-50
2022/01/04 17:16:26;;;;;;;10.82;3.00;;;3.50;80.00;;;;;;4975120;28;20574;-53
2022/01/04 17:18:53;;;;;;;6.97;2.50;;;3.50;79.70;;;;;;4989944;28;20038;-51
2022/01/04 17:21:20;;;;;;;6.60;2.38;;;3.50;79.50;;;;;;4975200;28;20118;-48
2022/01/04 17:23:47;;;;;;;9.68;2.63;;;3.50;79.30;;;;;;4966194;28;53967;-54
2022/01/04 17:26:16;;;;;;;6.78;2.72;;;3.50;79.20;;;;;;4972694;28;20117;-53
2022/01/04 17:28:42;;;;;;;6.80;2.42;;;3.40;78.40;;;;;;4953517;28;20051;-51
2022/01/04 17:31:09;;;;;;;9.10;2.80;;;3.40;78.10;;;;;;4954911;28;20043;-53
2022/01/04 17:33:36;;;;;;;10.75;3.85;;;3.40;78.20;;;;;;4955359;28;20054;-52
2022/01/04 17:36:03;;;;;;;10.55;3.85;;;3.40;78.30;;;;;;4954813;28;20035;-50
2022/01/04 17:38:30;;;;;;;15.15;3.90;;;3.40;77.90;;;;;;4955625;28;20036;-47
2022/01/04 17:40:57;;;;;;;13.98;4.03;;;3.30;77.90;;;;;;4955395;28;20098;-50
2022/01/04 17:43:24;;;;;;;11.10;4.03;;;3.30;77.90;;;;;;4954572;28;20049;-53
2022/01/04 17:45:51;;;;;;;11.88;3.38;;;3.30;78.10;;;;;;4955373;28;20459;-46
2022/01/04 17:48:19;;;;;;;16.48;3.72;;;3.30;78.20;;;;;;4954619;28;20047;-50
2022/01/04 17:50:47;;;;;;;9.00;3.03;;;3.30;79.40;;;;;;4955365;28;20062;-51
2022/01/04 17:53:15;;;;;;;13.77;3.25;;;3.20;79.30;;;;;;4955460;28;20043;-51
2022/01/04 17:55:41;;;;;;;12.68;3.22;;;3.20;78.70;;;;;;4954287;28;20051;-48
2022/01/04 17:58:08;;;;;;;9.73;3.80;;;3.20;79.90;;;;;;4955093;28;20074;-49
2022/01/04 18:00:35;;;;;;;13.45;3.45;;;3.20;79.10;;;;;;4954579;28;20122;-49
2022/01/04 18:03:02;;;;;;;10.77;3.35;;;3.20;79.60;;;;;;4955036;28;20047;-47
2022/01/04 18:05:29;;;;;;;11.25;3.00;;;3.20;78.70;;;;;;4954415;28;20047;-52
2022/01/04 18:07:56;;;;;;;8.68;3.30;;;3.10;78.70;;;;;;4953820;28;20054;-50
2022/01/04 18:10:23;;;;;;;12.95;3.42;;;3.20;77.90;;;;;;4954249;28;20049;-51
2022/01/04 18:12:50;;;;;;;11.38;3.40;;;3.20;77.80;;;;;;4954871;28;20134;-52
2022/01/04 18:15:18;;;;;;;15.77;3.28;;;3.10;77.30;;;;;;4955217;28;20492;-53
2022/01/04 18:17:45;;;;;;;11.55;3.10;;;3.10;77.80;;;;;;4955005;28;20054;-47
2022/01/04 18:20:12;;;;;;;17.85;3.47;;;3.10;77.30;;;;;;4954416;28;20039;-51
2022/01/04 18:22:38;;;;;;;15.48;3.65;;;3.10;78.40;;;;;;4969695;28;20047;-49
2022/01/04 18:25:05;;;;;;;13.00;3.28;;;3.10;77.70;;;;;;4954313;28;20044;-52
2022/01/04 18:27:32;;;;;;;13.80;3.38;;;3.10;76.90;;;;;;4954941;28;20051;-52
2022/01/04 18:29:59;;;;;;;14.77;3.47;;;3.10;77.80;;;;;;4954311;28;20047;-50
2022/01/04 18:32:31;;;;;;;10.95;3.30;;;3.10;78.30;;;;;;4952187;28;20044;-54
2022/01/04 18:34:58;;;;;;;14.13;3.08;;;3.10;77.10;;;;;;4955020;28;20043;-51
2022/01/04 18:37:25;;;;;;;11.20;3.30;;;3.10;77.90;;;;;;4954095;28;20058;-49
2022/01/04 18:39:52;;;;;;;14.30;4.45;;;3.00;78.40;;;;;;4964327;28;20509;-49
2022/01/04 18:42:19;;;;;;;19.23;3.60;;;3.00;78.90;;;;;;4973221;28;20094;-50
2022/01/04 18:44:46;;;;;;;13.07;3.83;;;3.00;78.80;;;;;;4955753;28;20035;-51
2022/01/04 18:47:13;;;;;;;11.75;3.30;;;2.90;79.10;;;;;;4963619;28;20055;-46
2022/01/04 18:49:39;;;;;;;12.25;4.40;;;2.90;80.00;;;;;;4968269;28;20065;-51
2022/01/04 18:52:06;;;;;;;13.25;3.90;;;2.90;80.00;;;;;;4954659;28;20046;-48
2022/01/04 18:54:33;;;;;;;14.43;3.75;;;2.90;80.40;;;;;;4954652;28;20050;-52
2022/01/04 18:57:00;;;;;;;16.60;4.45;;;2.90;80.60;;;;;;4953777;28;20130;-54
2022/01/04 18:59:27;;;;;;;17.38;4.95;;;2.80;81.00;;;;;;4956996;28;20050;-52
2022/01/04 19:01:54;;;;;;;19.42;5.43;;;2.80;81.30;;;;;;4957561;28;20453;-49
2022/01/04 19:04:21;;;;;;;22.45;5.63;;;2.80;81.60;;;;;;4958360;28;20384;-48
2022/01/04 19:06:47;;;;;;;14.63;4.93;;;2.70;81.80;;;;;;4958130;28;20052;-49
2022/01/04 19:09:14;;;;;;;19.05;5.78;;;2.70;81.80;;;;;;4957348;28;20058;-48
2022/01/04 19:11:41;;;;;;;17.48;5.00;;;2.60;82.20;;;;;;4958089;28;20047;-53
2022/01/04 19:14:08;;;;;;;17.20;6.43;;;2.60;82.80;;;;;;4958165;28;20047;-56
2022/01/04 19:16:35;;;;;;;24.90;9.50;;;2.60;82.70;;;;;;4958139;28;20118;-50
2022/01/04 19:19:01;;;;;;;22.65;6.85;;;2.60;83.40;;;;;;4957191;28;20370;-55
2022/01/04 19:21:28;;;;;;;20.60;6.22;;;2.50;83.60;;;;;;4956756;28;20043;-52
2022/01/04 19:23:55;;;;;;;20.92;5.68;;;2.50;84.10;;;;;;4957917;28;20054;-51
2022/01/04 19:26:22;;;;;;;19.42;6.90;;;2.50;84.50;;;;;;4957919;28;20447;-49
2022/01/04 19:28:49;;;;;;;23.55;7.95;;;2.50;84.60;;;;;;4957939;28;20051;-46
2022/01/04 19:31:23;;;;;;;22.23;7.30;;;2.40;84.40;;;;;;4957940;28;20047;-52
2022/01/04 19:36:22;;;;;;;23.60;7.70;;;2.40;84.20;;;;;;4956803;28;20058;-52
2022/01/04 19:38:49;;;;;;;23.52;6.93;;;2.40;84.00;;;;;;4957769;28;20039;-48
2022/01/04 19:41:16;;;;;;;18.42;5.32;;;2.40;84.80;;;;;;4957791;28;20405;-50
2022/01/04 19:43:43;;;;;;;16.30;5.65;;;2.40;84.40;;;;;;4957700;28;20035;-51
2022/01/04 19:46:09;;;;;;;16.50;5.18;;;2.30;84.70;;;;;;4957506;28;20160;-49
2022/01/04 19:48:36;;;;;;;14.10;5.72;;;2.30;84.90;;;;;;4972503;28;20122;-52
2022/01/04 19:51:03;;;;;;;16.20;5.82;;;2.30;85.40;;;;;;4957567;28;20051;-49
2022/01/04 19:53:30;;;;;;;22.80;8.15;;;2.30;85.40;;;;;;4957329;28;20047;-56
2022/01/04 19:55:57;;;;;;;17.60;6.40;;;2.30;85.50;;;;;;4957437;28;20407;-53
2022/01/04 19:58:24;;;;;;;21.08;8.18;;;2.30;85.60;;;;;;4957417;28;20039;-48
2022/01/04 20:00:50;;;;;;;25.88;7.47;;;2.20;85.90;;;;;;4957296;28;20130;-55
2022/01/04 20:03:17;;;;;;;18.75;6.30;;;2.20;85.90;;;;;;4971099;28;20567;-47
2022/01/04 20:05:45;;;;;;;24.63;7.45;;;2.20;86.10;;;;;;4950958;28;20054;-51
2022/01/04 20:08:13;;;;;;;17.60;5.88;;;2.20;86.10;;;;;;4964634;28;20031;-50
2022/01/04 20:10:40;;;;;;;22.35;6.55;;;2.20;86.30;;;;;;4950668;28;20131;-47
2022/01/04 20:13:07;;;;;;;27.23;5.95;;;2.20;86.70;;;;;;4974316;28;20061;-51
2022/01/04 20:15:36;;;;;;;16.48;5.90;;;2.10;86.00;;;;;;4990473;28;20048;-53
2022/01/04 20:18:03;;;;;;;20.23;6.65;;;2.10;86.70;;;;;;4975401;28;20038;-50
2022/01/04 20:20:30;;;;;;;17.00;5.53;;;2.20;86.60;;;;;;4975660;28;20394;-51
2022/01/04 20:22:57;;;;;;;17.20;5.30;;;2.10;86.70;;;;;;4975518;28;20039;-46
2022/01/04 20:25:23;;;;;;;15.10;5.45;;;2.10;86.40;;;;;;4975269;28;20054;-49
2022/01/04 20:27:50;;;;;;;13.80;5.25;;;2.10;86.60;;;;;;4974978;28;20043;-48
2022/01/04 20:30:17;;;;;;;13.43;4.70;;;2.10;87.10;;;;;;4975194;28;20043;-50
2022/01/04 20:32:44;;;;;;;13.85;5.57;;;2.10;86.80;;;;;;4958222;28;20051;-50
2022/01/04 20:35:26;;;;;;;21.00;4.88;;;2.10;86.70;;;;;;4956721;28;20074;-45
2022/01/04 20:37:53;;;;;;;19.08;5.82;;;2.10;86.90;;;;;;4956734;28;20399;-49
2022/01/04 20:40:19;;;;;;;22.35;7.40;;;2.00;86.60;;;;;;4956509;28;20039;-54
2022/01/04 20:42:46;;;;;;;17.42;5.20;;;2.00;86.90;;;;;;4955611;28;20063;-48
2022/01/04 20:45:13;;;;;;;17.25;5.63;;;2.00;86.90;;;;;;4956507;28;20046;-48
2022/01/04 20:47:40;;;;;;;16.60;5.70;;;2.00;86.80;;;;;;4956307;28;20058;-48
2022/01/04 20:50:08;;;;;;;11.63;4.88;;;2.00;87.10;;;;;;4954357;28;20040;-51
2022/01/04 20:52:37;;;;;;;18.63;5.40;;;2.00;87.10;;;;;;4956115;28;20072;-48
2022/01/04 20:55:03;;;;;;;21.38;6.28;;;2.00;87.10;;;;;;4954864;28;20356;-49
2022/01/04 20:57:30;;;;;;;18.55;5.53;;;2.00;86.90;;;;;;4950972;28;20321;-48
2022/01/04 20:59:57;;;;;;;24.33;5.35;;;1.90;86.50;;;;;;4974735;28;20049;-47
2022/01/04 21:02:24;;;;;;;16.52;5.30;;;2.00;86.60;;;;;;4960983;28;20047;-54
2022/01/04 21:04:51;;;;;;;23.52;6.15;;;2.00;87.10;;;;;;4956018;28;20495;-51
2022/01/04 21:07:17;;;;;;;18.90;5.43;;;2.00;87.60;;;;;;4955167;28;20051;-53
2022/01/04 21:09:44;;;;;;;21.75;5.50;;;2.00;87.10;;;;;;4955969;28;20432;-48
2022/01/04 21:12:11;;;;;;;19.05;4.82;;;2.00;86.70;;;;;;4955733;28;20444;-54
2022/01/04 21:14:38;;;;;;;18.30;4.50;;;2.00;86.80;;;;;;4955138;28;20483;-48
2022/01/04 21:17:04;;;;;;;19.83;4.22;;;2.00;86.80;;;;;;4932282;28;20077;-51
2022/01/04 21:19:31;;;;;;;16.52;4.70;;;2.00;87.00;;;;;;4953695;28;20126;-51
2022/01/04 21:21:59;;;;;;;14.20;4.10;;;2.00;86.80;;;;;;4954747;28;20039;-51
2022/01/04 21:24:26;;;;;;;16.58;4.18;;;2.00;86.60;;;;;;4955069;28;20134;-51
2022/01/04 21:26:52;;;;;;;12.82;3.95;;;2.00;86.80;;;;;;4954013;28;20046;-49
2022/01/04 21:29:20;;;;;;;19.02;3.92;;;2.10;87.40;;;;;;4955049;28;20100;-53
2022/01/04 21:31:47;;;;;;;20.60;4.53;;;2.10;87.00;;;;;;4954078;28;20047;-49
2022/01/04 21:34:15;;;;;;;14.57;3.55;;;2.10;86.80;;;;;;4954205;28;20129;-51
2022/01/04 21:36:42;;;;;;;15.75;3.90;;;2.10;86.90;;;;;;4954582;28;20075;-49
2022/01/04 21:39:17;;;;;;;21.95;4.85;;;2.10;86.80;;;;;;4954794;28;20154;-48
2022/01/04 21:41:44;;;;;;;17.52;3.72;;;2.10;87.40;;;;;;4954118;28;20047;-45
2022/01/04 21:44:11;;;;;;;17.83;4.10;;;2.10;87.10;;;;;;4954713;28;20047;-49
2022/01/04 21:46:37;;;;;;;21.13;4.72;;;2.10;87.30;;;;;;4953753;28;20118;-51
2022/01/04 21:49:04;;;;;;;16.13;3.72;;;2.10;87.20;;;;;;4969409;28;20054;-49
2022/01/04 21:51:31;;;;;;;15.10;3.70;;;2.10;87.10;;;;;;4955070;28;20047;-51
2022/01/04 21:53:58;;;;;;;15.63;4.10;;;2.10;87.30;;;;;;4954477;28;20047;-49
2022/01/04 21:56:24;;;;;;;14.40;3.60;;;2.10;87.30;;;;;;4954235;28;20050;-50
2022/01/04 21:58:51;;;;;;;20.67;4.03;;;2.10;87.20;;;;;;4954551;28;20043;-45
2022/01/04 22:01:18;;;;;;;11.07;2.83;;;2.10;87.10;;;;;;4954158;28;20046;-50
2022/01/04 22:03:45;;;;;;;20.58;3.78;;;2.10;87.10;;;;;;4954383;28;20054;-47
2022/01/04 22:06:12;;;;;;;16.10;3.55;;;2.10;87.60;;;;;;4954355;28;20055;-54
2022/01/04 22:08:39;;;;;;;19.10;4.13;;;2.10;87.40;;;;;;4954367;28;20043;-53
2022/01/04 22:11:06;;;;;;;15.35;3.03;;;2.10;87.90;;;;;;4953692;28;20047;-49
2022/01/04 22:13:33;;;;;;;16.55;3.13;;;2.00;87.50;;;;;;4953776;28;20066;-51
2022/01/04 22:15:59;;;;;;;14.43;3.63;;;2.10;87.90;;;;;;4954226;28;20090;-52
2022/01/04 22:18:26;;;;;;;12.40;3.65;;;2.00;87.80;;;;;;4954204;28;20108;-49
2022/01/04 22:20:53;;;;;;;15.30;4.13;;;2.00;88.40;;;;;;4954408;28;20402;-49
2022/01/04 22:23:20;;;;;;;10.88;2.78;;;2.00;88.20;;;;;;4954495;28;20050;-51
2022/01/04 22:25:48;;;;;;;13.27;3.28;;;2.00;88.10;;;;;;4954548;28;20039;-52
2022/01/04 22:28:15;;;;;;;11.38;2.88;;;2.00;88.10;;;;;;4953554;28;20054;-53
2022/01/04 22:30:41;;;;;;;12.55;3.25;;;2.00;88.40;;;;;;4961619;28;85660;-57
2022/01/04 22:33:08;;;;;;;12.10;3.33;;;2.00;88.40;;;;;;4989134;28;20042;-49
2022/01/04 22:35:35;;;;;;;18.65;3.53;;;2.00;88.60;;;;;;4977817;28;20042;-50
2022/01/04 22:38:02;;;;;;;16.80;2.95;;;1.90;88.80;;;;;;4977963;28;20453;-52
2022/01/04 22:40:29;;;;;;;14.50;2.85;;;1.90;88.60;;;;;;4977008;28;20062;-52
2022/01/04 22:42:56;;;;;;;15.82;2.95;;;1.90;88.90;;;;;;4987556;28;20038;-51
2022/01/04 22:45:22;;;;;;;10.88;3.00;;;1.90;88.70;;;;;;5011562;28;20114;-48
2022/01/04 22:47:49;;;;;;;12.32;2.80;;;1.90;88.80;;;;;;5011337;28;20506;-47
2022/01/04 22:50:16;;;;;;;11.82;3.25;;;1.90;89.00;;;;;;4996269;28;20061;-54
2022/01/04 22:52:43;;;;;;;13.65;3.20;;;1.90;88.70;;;;;;4982926;28;20129;-50
2022/01/04 22:55:10;;;;;;;9.77;2.50;;;1.90;88.90;;;;;;4977297;28;20039;-51
2022/01/04 22:57:37;;;;;;;12.63;2.70;;;1.90;89.00;;;;;;4984182;28;20043;-53
2022/01/04 23:00:03;;;;;;;13.80;2.30;;;1.90;89.10;;;;;;4992872;28;20041;-51
2022/01/04 23:02:30;;;;;;;9.75;2.17;;;1.80;89.00;;;;;;4996390;28;20435;-49
2022/01/04 23:04:57;;;;;;;13.20;3.25;;;1.90;88.90;;;;;;4996069;28;20046;-51
2022/01/04 23:07:24;;;;;;;11.13;2.85;;;1.90;88.80;;;;;;5011047;28;20391;-49
2022/01/04 23:09:52;;;;;;;8.65;2.53;;;1.80;89.10;;;;;;4995880;28;20046;-50
2022/01/04 23:12:19;;;;;;;9.20;2.25;;;1.80;88.50;;;;;;4995727;28;20528;-47
2022/01/04 23:14:46;;;;;;;14.40;2.75;;;1.90;89.30;;;;;;4984838;28;20054;-52
2022/01/04 23:17:13;;;;;;;10.65;2.47;;;1.80;88.70;;;;;;4981819;28;20113;-54
2022/01/04 23:19:40;;;;;;;9.27;2.35;;;1.90;89.10;;;;;;5010679;28;20437;-50
2022/01/04 23:22:06;;;;;;;10.63;2.05;;;1.80;88.90;;;;;;4995780;28;20037;-48
